F/V Mailys Charlie — FMIW — position and weather

sailwx.info

Track history (hours):
 
Tides and Currents Weather Stations Pressure Air Temp Water Temp Dewpoint Dewpoint Depression Visibility Wind Speed Wind Dir Waves Ship Positions

F/V Mailys Charlie

Last reported at 2017-Feb-21 07:32 UTC. Time now 2017-Feb-21 08:02 UTC.
Position N 47°18' W 004°52'.

Length 19 m.

Type: Fishing. MMSI: 228240800.

Date/timePositionNaut miles runAvg speedWind from/ knotsBaromVisibWave heightAir tempDewpointWater temp
2017-Feb-21 07:32N 47°18' W 004°52'3 2.6
2017-Feb-21 06:33N 47°15' W 004°52'4 2.0
2017-Feb-21 04:18N 47°18' W 004°57'1 0.4
2017-Feb-21 01:33N 47°18' W 004°58'1 1.3
2017-Feb-21 00:29N 47°19' W 004°59'3 2.8
2017-Feb-20 23:30N 47°19' W 005°03'2 2.5
2017-Feb-20 22:32N 47°18' W 004°59'40 4.5
2017-Feb-20 13:33N 47°41' W 004°10'10 1.6
2017-Feb-20 07:16N 47°48' W 003°59'51 3.5
2017-Feb-19 16:31N 47°19' W 005°02'0 0.4
2017-Feb-19 15:32N 47°19' W 005°03'0 0.2
2017-Feb-19 14:29N 47°19' W 005°03'2 0.1
2017-Feb-19 02:08N 47°19' W 005°05'2 3.2
2017-Feb-19 01:31N 47°19' W 005°02'1 0.6
2017-Feb-18 23:19N 47°19' W 005°00'27 3.0
2017-Feb-18 14:30N 47°16' W 004°21'9 9.7
2017-Feb-18 13:33N 47°16' W 004°08'10 9.6
2017-Feb-18 12:33N 47°16' W 003°53'9 9.6
2017-Feb-18 11:33N 47°16' W 003°40'9 9.5
2017-Feb-18 10:33N 47°16' W 003°26'9 9.4
2017-Feb-18 09:34N 47°16' W 003°12'9 9.1
2017-Feb-18 08:33N 47°16' W 002°58'9 8.9
2017-Feb-18 07:34N 47°18' W 002°45'9 8.7
2017-Feb-18 06:33N 47°20' W 002°33'2 1.6
2017-Feb-18 05:33N 47°21' W 002°31'0 0.0
2017-Feb-18 04:33N 47°21' W 002°31'0 0.0
2017-Feb-18 03:33N 47°21' W 002°31'0 0.0
2017-Feb-18 02:34N 47°21' W 002°31'0 0.0
2017-Feb-18 01:33N 47°21' W 002°31'0 0.0
2017-Feb-18 00:33N 47°21' W 002°31'0 0.0
2017-Feb-17 23:33N 47°21' W 002°31'0 0.0
2017-Feb-17 22:33N 47°21' W 002°31'0 0.0
2017-Feb-17 21:34N 47°21' W 002°31'0 0.0
2017-Feb-17 20:33N 47°21' W 002°31'0 0.0
2017-Feb-17 19:33N 47°21' W 002°31'0 0.0
2017-Feb-17 18:34N 47°21' W 002°31'0 0.0
2017-Feb-17 17:33N 47°21' W 002°31'0 0.0
2017-Feb-17 16:33N 47°21' W 002°31'0 0.0
2017-Feb-17 15:34N 47°21' W 002°31'0 0.0
2017-Feb-17 14:34N 47°21' W 002°31'0 0.0
2017-Feb-17 13:33N 47°21' W 002°31'0 0.0
2017-Feb-17 12:33N 47°21' W 002°31'0 0.0
2017-Feb-17 11:33N 47°21' W 002°31'0 0.0
2017-Feb-17 10:33N 47°21' W 002°31'0 0.0
2017-Feb-17 09:33N 47°21' W 002°31'0 0.0
2017-Feb-17 08:33N 47°21' W 002°31'0 0.0
2017-Feb-17 07:33N 47°21' W 002°31'0 0.0
2017-Feb-17 06:33N 47°21' W 002°31'0 0.0
2017-Feb-17 05:34N 47°21' W 002°31'0 0.0
2017-Feb-17 04:34N 47°21' W 002°31'0 0.0
2017-Feb-17 03:33N 47°21' W 002°31'0 0.0
2017-Feb-17 02:31N 47°21' W 002°31'0 0.0
2017-Feb-17 01:33N 47°21' W 002°31'0 0.0
2017-Feb-17 00:34N 47°21' W 002°31'0 0.0
2017-Feb-16 23:33N 47°21' W 002°31'0 0.0
2017-Feb-16 22:34N 47°21' W 002°31'0 0.0
2017-Feb-16 21:33N 47°21' W 002°31'0 0.0
2017-Feb-16 20:33N 47°21' W 002°31'0 0.0
2017-Feb-16 19:33N 47°21' W 002°31'0 0.0
2017-Feb-16 18:33N 47°21' W 002°31'0 0.0
2017-Feb-16 17:33N 47°21' W 002°31'0 0.0
2017-Feb-16 16:33N 47°21' W 002°31'0 0.0
2017-Feb-16 15:33N 47°21' W 002°31'0 0.0
2017-Feb-16 14:34N 47°21' W 002°31'0 0.0
2017-Feb-16 13:33N 47°21' W 002°31'0 0.0
2017-Feb-16 12:34N 47°21' W 002°31'0 0.0
2017-Feb-16 11:33N 47°21' W 002°31'0 0.0
2017-Feb-16 10:33N 47°21' W 002°31'0 0.0
2017-Feb-16 09:33N 47°21' W 002°31'0 0.0
2017-Feb-16 08:33N 47°21' W 002°31'0 0.0
2017-Feb-16 07:33N 47°21' W 002°31'0 0.0
2017-Feb-16 06:33N 47°21' W 002°31'0 0.0
2017-Feb-15 18:30N 47°21' W 002°31'0 0.0
2017-Feb-15 17:33N 47°21' W 002°31'0 0.0
2017-Feb-15 16:33N 47°21' W 002°31'0 0.0
2017-Feb-15 15:33N 47°21' W 002°31'3 3.0
2017-Feb-15 14:30N 47°20' W 002°35'1010.1
2017-Feb-15 13:33N 47°18' W 002°49'9 9.3
2017-Feb-15 12:33N 47°17' W 003°03'9 8.6
2017-Feb-15 11:30N 47°17' W 003°16'8 8.9
2017-Feb-15 10:33N 47°17' W 003°28'9 9.3
2017-Feb-15 09:33N 47°18' W 003°42'  
2017-Feb-12 00:14N 47°15' W 003°34'6 8.1
2017-Feb-11 23:33N 47°15' W 003°26'9 8.7
2017-Feb-11 22:33N 47°15' W 003°13'10 9.8
2017-Feb-11 21:33N 47°16' W 002°59'1010.0
2017-Feb-11 20:33N 47°18' W 002°45'10 9.4
2017-Feb-11 19:33N 47°21' W 002°31'0 0.2
2017-Feb-11 18:33N 47°21' W 002°31'0 0.0
2017-Feb-11 17:33N 47°21' W 002°31'0 0.4
2017-Feb-11 16:33N 47°21' W 002°31'10 9.8
2017-Feb-11 15:33N 47°19' W 002°45'1010.1
2017-Feb-11 14:33N 47°17' W 002°60'1010.0
2017-Feb-11 13:33N 47°15' W 003°14'  
Track history (hours):
 
Tides and Currents Weather Stations Pressure Air Temp Water Temp Dewpoint Dewpoint Depression Visibility Wind Speed Wind Dir Waves Ship Positions

F/V Mailys Charlie

Last reported at 2017-Feb-21 07:32 UTC. Time now 2017-Feb-21 08:02 UTC.
Position N 47°18' W 004°52'.

Length 19 m.

Type: Fishing. MMSI: 228240800.

Date/timePositionNaut miles runAvg speedWind from/ knotsBaromVisibWave heightAir tempDewpointWater temp
2017-Feb-21 07:32N 47°18' W 004°52'3 2.6
2017-Feb-21 06:33N 47°15' W 004°52'4 2.0
2017-Feb-21 04:18N 47°18' W 004°57'1 0.4
2017-Feb-21 01:33N 47°18' W 004°58'1 1.3
2017-Feb-21 00:29N 47°19' W 004°59'3 2.8
2017-Feb-20 23:30N 47°19' W 005°03'2 2.5
2017-Feb-20 22:32N 47°18' W 004°59'40 4.5
2017-Feb-20 13:33N 47°41' W 004°10'10 1.6
2017-Feb-20 07:16N 47°48' W 003°59'51 3.5
2017-Feb-19 16:31N 47°19' W 005°02'0 0.4
2017-Feb-19 15:32N 47°19' W 005°03'0 0.2
2017-Feb-19 14:29N 47°19' W 005°03'2 0.1
2017-Feb-19 02:08N 47°19' W 005°05'2 3.2
2017-Feb-19 01:31N 47°19' W 005°02'1 0.6
2017-Feb-18 23:19N 47°19' W 005°00'27 3.0
2017-Feb-18 14:30N 47°16' W 004°21'9 9.7
2017-Feb-18 13:33N 47°16' W 004°08'10 9.6
2017-Feb-18 12:33N 47°16' W 003°53'9 9.6
2017-Feb-18 11:33N 47°16' W 003°40'9 9.5
2017-Feb-18 10:33N 47°16' W 003°26'9 9.4
2017-Feb-18 09:34N 47°16' W 003°12'9 9.1
2017-Feb-18 08:33N 47°16' W 002°58'9 8.9
2017-Feb-18 07:34N 47°18' W 002°45'9 8.7
2017-Feb-18 06:33N 47°20' W 002°33'2 1.6
2017-Feb-18 05:33N 47°21' W 002°31'0 0.0
2017-Feb-18 04:33N 47°21' W 002°31'0 0.0
2017-Feb-18 03:33N 47°21' W 002°31'0 0.0
2017-Feb-18 02:34N 47°21' W 002°31'0 0.0
2017-Feb-18 01:33N 47°21' W 002°31'0 0.0
2017-Feb-18 00:33N 47°21' W 002°31'0 0.0
2017-Feb-17 23:33N 47°21' W 002°31'0 0.0
2017-Feb-17 22:33N 47°21' W 002°31'0 0.0
2017-Feb-17 21:34N 47°21' W 002°31'0 0.0
2017-Feb-17 20:33N 47°21' W 002°31'0 0.0
2017-Feb-17 19:33N 47°21' W 002°31'0 0.0
2017-Feb-17 18:34N 47°21' W 002°31'0 0.0
2017-Feb-17 17:33N 47°21' W 002°31'0 0.0
2017-Feb-17 16:33N 47°21' W 002°31'0 0.0
2017-Feb-17 15:34N 47°21' W 002°31'0 0.0
2017-Feb-17 14:34N 47°21' W 002°31'0 0.0
2017-Feb-17 13:33N 47°21' W 002°31'0 0.0
2017-Feb-17 12:33N 47°21' W 002°31'0 0.0
2017-Feb-17 11:33N 47°21' W 002°31'0 0.0
2017-Feb-17 10:33N 47°21' W 002°31'0 0.0
2017-Feb-17 09:33N 47°21' W 002°31'0 0.0
2017-Feb-17 08:33N 47°21' W 002°31'0 0.0
2017-Feb-17 07:33N 47°21' W 002°31'0 0.0
2017-Feb-17 06:33N 47°21' W 002°31'0 0.0
2017-Feb-17 05:34N 47°21' W 002°31'0 0.0
2017-Feb-17 04:34N 47°21' W 002°31'0 0.0
2017-Feb-17 03:33N 47°21' W 002°31'0 0.0
2017-Feb-17 02:31N 47°21' W 002°31'0 0.0
2017-Feb-17 01:33N 47°21' W 002°31'0 0.0
2017-Feb-17 00:34N 47°21' W 002°31'0 0.0
2017-Feb-16 23:33N 47°21' W 002°31'0 0.0
2017-Feb-16 22:34N 47°21' W 002°31'0 0.0
2017-Feb-16 21:33N 47°21' W 002°31'0 0.0
2017-Feb-16 20:33N 47°21' W 002°31'0 0.0
2017-Feb-16 19:33N 47°21' W 002°31'0 0.0
2017-Feb-16 18:33N 47°21' W 002°31'0 0.0
2017-Feb-16 17:33N 47°21' W 002°31'0 0.0
2017-Feb-16 16:33N 47°21' W 002°31'0 0.0
2017-Feb-16 15:33N 47°21' W 002°31'0 0.0
2017-Feb-16 14:34N 47°21' W 002°31'0 0.0
2017-Feb-16 13:33N 47°21' W 002°31'0 0.0
2017-Feb-16 12:34N 47°21' W 002°31'0 0.0
2017-Feb-16 11:33N 47°21' W 002°31'0 0.0
2017-Feb-16 10:33N 47°21' W 002°31'0 0.0
2017-Feb-16 09:33N 47°21' W 002°31'0 0.0
2017-Feb-16 08:33N 47°21' W 002°31'0 0.0
2017-Feb-16 07:33N 47°21' W 002°31'0 0.0
2017-Feb-16 06:33N 47°21' W 002°31'0 0.0
2017-Feb-15 18:30N 47°21' W 002°31'0 0.0
2017-Feb-15 17:33N 47°21' W 002°31'0 0.0
2017-Feb-15 16:33N 47°21' W 002°31'0 0.0
2017-Feb-15 15:33N 47°21' W 002°31'3 3.0
2017-Feb-15 14:30N 47°20' W 002°35'1010.1
2017-Feb-15 13:33N 47°18' W 002°49'9 9.3
2017-Feb-15 12:33N 47°17' W 003°03'9 8.6
2017-Feb-15 11:30N 47°17' W 003°16'8 8.9
2017-Feb-15 10:33N 47°17' W 003°28'9 9.3
2017-Feb-15 09:33N 47°18' W 003°42'  
2017-Feb-12 00:14N 47°15' W 003°34'6 8.1
2017-Feb-11 23:33N 47°15' W 003°26'9 8.7
2017-Feb-11 22:33N 47°15' W 003°13'10 9.8
2017-Feb-11 21:33N 47°16' W 002°59'1010.0
2017-Feb-11 20:33N 47°18' W 002°45'10 9.4
2017-Feb-11 19:33N 47°21' W 002°31'0 0.2
2017-Feb-11 18:33N 47°21' W 002°31'0 0.0
2017-Feb-11 17:33N 47°21' W 002°31'0 0.4
2017-Feb-11 16:33N 47°21' W 002°31'10 9.8
2017-Feb-11 15:33N 47°19' W 002°45'1010.1
2017-Feb-11 14:33N 47°17' W 002°60'1010.0
2017-Feb-11 13:33N 47°15' W 003°14'  

Dump ship's entire track history